Pagina principale
METAR-TAF:

METAR-TAF

Aeroporti :

Memmingen, Germania

latitudine: 47-59-33N, longitudine: 10-14-37E, altezza: 633 m

Osservazione

Il bollettino è stato emesso 19 minuti fa, alle 09:50 UTC
Vento 2 kt da direzioni variabili
Temperature 17°C
Umidità 55%
Pressione 1020 hPa
Visibilità 10 km o più
nessuna nube inferiore a 1500 m e nessun cumulonembo

METAR: EDJA 170950Z VRB02KT CAVOK 17/08 Q1020

Ora: 12:09 (10:09 UTC)

Previsione

Il bollettino è stato emesso 2 ore e 9 minuti fa, alle 08:00 UTC
Previsione valida dal 17 alle 09 UTC al 17 alle 18 UTC
Vento 3 kt da direzioni variabili
Visibilità 10 km o più
nessuna nube inferiore a 1500 m e nessun cumulonembo
Evoluzione graduale
dal 17 alle 09 UTC al 17 alle 11 UTC
Vento 7 kt da nord-est

TAF: EDJA 170800Z 1709/1718 VRB03KT CAVOK BECMG 1709/1711 04007KT

Osservazioni e previsioni meteorologiche di più di 4000 aeroporti (messaggi METAR e TAF).

Le stazioni disponibili sono rappresentate dai dischi gialli e rossi sulla carta.

Puntare il mouse per vedere il nome della stazione.

Clicca sopra per visualizzare le osservazioni e previsioni meteorologiche.

Per cambiare la mappa : fare clic sui pulsanti verdi con una croce nera per ingrandire, il pulsante verde con un trattino per diminuire, o sulla freccia verde per le mappe adiacenti.


METAR-TAF: